sensor_id;sensor_type;location;lat;lon;timestamp;temperature;humidity
21244;DHT22;10780;50.942;4.028;2023-01-25T00:02:25;4.00;99.90
21244;DHT22;10780;50.942;4.028;2023-01-25T00:04:50;4.20;99.90
21244;DHT22;10780;50.942;4.028;2023-01-25T00:07:16;4.10;99.90
21244;DHT22;10780;50.942;4.028;2023-01-25T00:09:42;4.10;99.90
21244;DHT22;10780;50.942;4.028;2023-01-25T00:12:07;4.30;99.90
21244;DHT22;10780;50.942;4.028;2023-01-25T00:14:33;4.50;99.90
21244;DHT22;10780;50.942;4.028;2023-01-25T00:16:58;4.50;99.90
21244;DHT22;10780;50.942;4.028;2023-01-25T00:19:24;4.40;99.90
21244;DHT22;10780;50.942;4.028;2023-01-25T00:21:50;4.30;99.90
21244;DHT22;10780;50.942;4.028;2023-01-25T00:24:15;4.20;99.90
21244;DHT22;10780;50.942;4.028;2023-01-25T00:26:42;4.30;99.90
21244;DHT22;10780;50.942;4.028;2023-01-25T00:29:12;4.30;99.90
21244;DHT22;10780;50.942;4.028;2023-01-25T00:32:02;4.30;99.90
21244;DHT22;10780;50.942;4.028;2023-01-25T00:34:41;4.30;99.90
21244;DHT22;10780;50.942;4.028;2023-01-25T00:37:27;4.20;99.90
21244;DHT22;10780;50.942;4.028;2023-01-25T00:39:54;4.00;99.90
21244;DHT22;10780;50.942;4.028;2023-01-25T00:42:20;3.90;99.90
21244;DHT22;10780;50.942;4.028;2023-01-25T00:44:46;3.70;99.90
21244;DHT22;10780;50.942;4.028;2023-01-25T00:47:13;3.70;99.90
21244;DHT22;10780;50.942;4.028;2023-01-25T00:49:40;3.70;99.90
21244;DHT22;10780;50.942;4.028;2023-01-25T00:52:07;3.60;99.90
21244;DHT22;10780;50.942;4.028;2023-01-25T00:54:32;3.70;99.90
21244;DHT22;10780;50.942;4.028;2023-01-25T00:56:58;3.70;99.90
21244;DHT22;10780;50.942;4.028;2023-01-25T00:59:24;3.80;99.90
21244;DHT22;10780;50.942;4.028;2023-01-25T01:01:50;3.90;99.90
21244;DHT22;10780;50.942;4.028;2023-01-25T01:04:17;3.80;99.90
21244;DHT22;10780;50.942;4.028;2023-01-25T01:06:43;3.70;99.90
21244;DHT22;10780;50.942;4.028;2023-01-25T01:09:14;3.80;99.90
21244;DHT22;10780;50.942;4.028;2023-01-25T01:11:40;3.80;99.90
21244;DHT22;10780;50.942;4.028;2023-01-25T01:14:06;3.70;99.90
21244;DHT22;10780;50.942;4.028;2023-01-25T01:16:32;3.70;99.90
21244;DHT22;10780;50.942;4.028;2023-01-25T01:18:57;3.80;99.90
21244;DHT22;10780;50.942;4.028;2023-01-25T01:21:23;3.90;99.90
21244;DHT22;10780;50.942;4.028;2023-01-25T01:23:49;3.80;99.90
21244;DHT22;10780;50.942;4.028;2023-01-25T01:26:16;3.60;99.90
21244;DHT22;10780;50.942;4.028;2023-01-25T01:28:45;3.50;99.90
21244;DHT22;10780;50.942;4.028;2023-01-25T01:31:18;3.30;99.90
21244;DHT22;10780;50.942;4.028;2023-01-25T01:33:47;3.50;99.90
21244;DHT22;10780;50.942;4.028;2023-01-25T01:36:17;3.50;99.90
21244;DHT22;10780;50.942;4.028;2023-01-25T01:38:44;3.60;99.90
21244;DHT22;10780;50.942;4.028;2023-01-25T01:41:11;3.50;99.90
21244;DHT22;10780;50.942;4.028;2023-01-25T01:43:37;3.60;99.90
21244;DHT22;10780;50.942;4.028;2023-01-25T01:48:51;3.70;99.90
21244;DHT22;10780;50.942;4.028;2023-01-25T01:54:15;3.80;99.90
21244;DHT22;10780;50.942;4.028;2023-01-25T01:57:04;3.90;99.90
21244;DHT22;10780;50.942;4.028;2023-01-25T02:02:09;3.90;99.90
21244;DHT22;10780;50.942;4.028;2023-01-25T02:04:35;4.00;99.90
21244;DHT22;10780;50.942;4.028;2023-01-25T02:07:06;3.90;99.90
21244;DHT22;10780;50.942;4.028;2023-01-25T02:09:36;3.80;99.90
21244;DHT22;10780;50.942;4.028;2023-01-25T02:12:03;3.70;99.90
21244;DHT22;10780;50.942;4.028;2023-01-25T02:14:29;3.60;99.90
21244;DHT22;10780;50.942;4.028;2023-01-25T02:16:55;3.60;99.90
21244;DHT22;10780;50.942;4.028;2023-01-25T02:19:53;3.60;99.90
21244;DHT22;10780;50.942;4.028;2023-01-25T02:22:26;3.50;99.90
21244;DHT22;10780;50.942;4.028;2023-01-25T02:25:22;3.50;99.90
21244;DHT22;10780;50.942;4.028;2023-01-25T02:27:52;3.40;99.90
21244;DHT22;10780;50.942;4.028;2023-01-25T02:30:18;3.30;99.90
21244;DHT22;10780;50.942;4.028;2023-01-25T02:32:43;3.30;99.90
21244;DHT22;10780;50.942;4.028;2023-01-25T02:35:43;3.30;99.90
21244;DHT22;10780;50.942;4.028;2023-01-25T02:38:12;3.40;99.90
21244;DHT22;10780;50.942;4.028;2023-01-25T02:40:53;3.50;99.90
21244;DHT22;10780;50.942;4.028;2023-01-25T02:43:20;3.40;99.90
21244;DHT22;10780;50.942;4.028;2023-01-25T02:45:53;3.30;99.90
21244;DHT22;10780;50.942;4.028;2023-01-25T02:48:20;2.90;99.90
21244;DHT22;10780;50.942;4.028;2023-01-25T02:50:46;2.90;99.90
21244;DHT22;10780;50.942;4.028;2023-01-25T02:53:11;2.80;99.90
21244;DHT22;10780;50.942;4.028;2023-01-25T02:55:37;2.80;99.90
21244;DHT22;10780;50.942;4.028;2023-01-25T02:58:02;3.00;99.90
21244;DHT22;10780;50.942;4.028;2023-01-25T03:00:28;3.10;99.90
21244;DHT22;10780;50.942;4.028;2023-01-25T03:02:54;3.30;99.90
21244;DHT22;10780;50.942;4.028;2023-01-25T03:05:19;3.30;99.90
21244;DHT22;10780;50.942;4.028;2023-01-25T03:07:45;3.40;99.90
21244;DHT22;10780;50.942;4.028;2023-01-25T03:10:10;3.50;99.90
21244;DHT22;10780;50.942;4.028;2023-01-25T03:12:36;3.40;99.90
21244;DHT22;10780;50.942;4.028;2023-01-25T03:15:02;3.20;99.90
21244;DHT22;10780;50.942;4.028;2023-01-25T03:17:28;3.30;99.90
21244;DHT22;10780;50.942;4.028;2023-01-25T03:19:55;3.20;99.90
21244;DHT22;10780;50.942;4.028;2023-01-25T03:22:21;3.30;99.90
21244;DHT22;10780;50.942;4.028;2023-01-25T03:24:46;3.10;99.90
21244;DHT22;10780;50.942;4.028;2023-01-25T03:27:12;3.10;99.90
21244;DHT22;10780;50.942;4.028;2023-01-25T03:29:43;3.20;99.90
21244;DHT22;10780;50.942;4.028;2023-01-25T03:32:09;3.30;99.90
21244;DHT22;10780;50.942;4.028;2023-01-25T03:34:35;3.20;99.90
21244;DHT22;10780;50.942;4.028;2023-01-25T03:37:01;3.20;99.90
21244;DHT22;10780;50.942;4.028;2023-01-25T03:39:27;3.00;99.90
21244;DHT22;10780;50.942;4.028;2023-01-25T03:41:53;3.00;99.90
21244;DHT22;10780;50.942;4.028;2023-01-25T03:44:19;2.90;99.90
21244;DHT22;10780;50.942;4.028;2023-01-25T03:46:44;3.10;99.90
21244;DHT22;10780;50.942;4.028;2023-01-25T03:49:10;3.00;99.90
21244;DHT22;10780;50.942;4.028;2023-01-25T03:51:36;3.00;99.90
21244;DHT22;10780;50.942;4.028;2023-01-25T03:54:02;3.10;99.90
21244;DHT22;10780;50.942;4.028;2023-01-25T03:56:28;3.00;99.90
21244;DHT22;10780;50.942;4.028;2023-01-25T03:58:53;3.10;99.90
21244;DHT22;10780;50.942;4.028;2023-01-25T04:01:19;3.10;99.90
21244;DHT22;10780;50.942;4.028;2023-01-25T04:03:44;3.10;99.90
21244;DHT22;10780;50.942;4.028;2023-01-25T04:06:10;3.20;99.90
21244;DHT22;10780;50.942;4.028;2023-01-25T04:08:36;3.30;99.90
21244;DHT22;10780;50.942;4.028;2023-01-25T04:11:07;3.40;99.90
21244;DHT22;10780;50.942;4.028;2023-01-25T04:13:34;3.30;99.90
21244;DHT22;10780;50.942;4.028;2023-01-25T04:16:02;3.20;99.90
21244;DHT22;10780;50.942;4.028;2023-01-25T04:18:28;3.00;99.90
21244;DHT22;10780;50.942;4.028;2023-01-25T04:20:54;2.90;99.90
21244;DHT22;10780;50.942;4.028;2023-01-25T04:23:21;3.00;99.90
21244;DHT22;10780;50.942;4.028;2023-01-25T04:26:03;3.10;99.90
21244;DHT22;10780;50.942;4.028;2023-01-25T04:28:31;3.20;99.90
21244;DHT22;10780;50.942;4.028;2023-01-25T04:30:57;3.20;99.90
21244;DHT22;10780;50.942;4.028;2023-01-25T04:33:24;3.20;99.90
21244;DHT22;10780;50.942;4.028;2023-01-25T04:35:50;3.00;99.90
21244;DHT22;10780;50.942;4.028;2023-01-25T04:38:16;2.90;99.90
21244;DHT22;10780;50.942;4.028;2023-01-25T04:40:42;2.90;99.90
21244;DHT22;10780;50.942;4.028;2023-01-25T04:43:09;3.00;99.90
21244;DHT22;10780;50.942;4.028;2023-01-25T04:45:36;3.00;99.90
21244;DHT22;10780;50.942;4.028;2023-01-25T04:48:04;3.10;99.90
21244;DHT22;10780;50.942;4.028;2023-01-25T04:50:30;3.10;99.90
21244;DHT22;10780;50.942;4.028;2023-01-25T04:52:56;3.10;99.90
21244;DHT22;10780;50.942;4.028;2023-01-25T04:55:22;3.00;99.90
21244;DHT22;10780;50.942;4.028;2023-01-25T04:57:50;2.80;99.90
21244;DHT22;10780;50.942;4.028;2023-01-25T05:00:17;2.80;99.90
21244;DHT22;10780;50.942;4.028;2023-01-25T05:02:43;2.90;99.90
21244;DHT22;10780;50.942;4.028;2023-01-25T05:05:09;2.90;99.90
21244;DHT22;10780;50.942;4.028;2023-01-25T05:07:35;2.90;99.90
21244;DHT22;10780;50.942;4.028;2023-01-25T05:10:01;2.80;99.90
21244;DHT22;10780;50.942;4.028;2023-01-25T05:12:27;3.10;99.90
21244;DHT22;10780;50.942;4.028;2023-01-25T05:14:52;3.30;99.90
21244;DHT22;10780;50.942;4.028;2023-01-25T05:17:18;3.50;99.90
21244;DHT22;10780;50.942;4.028;2023-01-25T05:19:44;3.50;99.90
21244;DHT22;10780;50.942;4.028;2023-01-25T05:22:14;3.50;99.90
21244;DHT22;10780;50.942;4.028;2023-01-25T05:24:40;3.50;99.90
21244;DHT22;10780;50.942;4.028;2023-01-25T05:27:08;3.50;99.90
21244;DHT22;10780;50.942;4.028;2023-01-25T05:29:42;3.50;99.90
21244;DHT22;10780;50.942;4.028;2023-01-25T05:32:16;3.60;99.90
21244;DHT22;10780;50.942;4.028;2023-01-25T05:34:43;3.70;99.90
21244;DHT22;10780;50.942;4.028;2023-01-25T05:37:11;3.90;99.90
21244;DHT22;10780;50.942;4.028;2023-01-25T05:39:37;3.90;99.90
21244;DHT22;10780;50.942;4.028;2023-01-25T05:42:06;3.90;99.90
21244;DHT22;10780;50.942;4.028;2023-01-25T05:44:33;4.10;99.90
21244;DHT22;10780;50.942;4.028;2023-01-25T05:46:58;4.20;99.90
21244;DHT22;10780;50.942;4.028;2023-01-25T05:49:24;3.80;99.90
21244;DHT22;10780;50.942;4.028;2023-01-25T05:51:49;3.70;99.90
21244;DHT22;10780;50.942;4.028;2023-01-25T05:54:16;3.80;99.90
21244;DHT22;10780;50.942;4.028;2023-01-25T05:56:42;3.90;99.90
21244;DHT22;10780;50.942;4.028;2023-01-25T05:59:10;3.70;99.90
21244;DHT22;10780;50.942;4.028;2023-01-25T06:01:36;3.80;99.90
21244;DHT22;10780;50.942;4.028;2023-01-25T06:04:01;3.80;99.90
21244;DHT22;10780;50.942;4.028;2023-01-25T06:06:27;3.90;99.90
21244;DHT22;10780;50.942;4.028;2023-01-25T06:08:53;4.10;99.90
21244;DHT22;10780;50.942;4.028;2023-01-25T06:11:21;4.00;99.90
21244;DHT22;10780;50.942;4.028;2023-01-25T06:13:47;3.80;99.90
21244;DHT22;10780;50.942;4.028;2023-01-25T06:16:14;3.70;99.90
21244;DHT22;10780;50.942;4.028;2023-01-25T06:18:40;3.80;99.90
21244;DHT22;10780;50.942;4.028;2023-01-25T06:21:06;3.90;99.90
21244;DHT22;10780;50.942;4.028;2023-01-25T06:23:31;4.10;99.90
21244;DHT22;10780;50.942;4.028;2023-01-25T06:26:06;4.00;99.90
21244;DHT22;10780;50.942;4.028;2023-01-25T06:28:32;3.90;99.90
21244;DHT22;10780;50.942;4.028;2023-01-25T06:31:13;4.10;99.90
21244;DHT22;10780;50.942;4.028;2023-01-25T06:33:40;4.10;99.90
21244;DHT22;10780;50.942;4.028;2023-01-25T06:36:10;4.10;99.90
21244;DHT22;10780;50.942;4.028;2023-01-25T06:38:36;4.00;99.90
21244;DHT22;10780;50.942;4.028;2023-01-25T06:41:04;4.20;99.90
21244;DHT22;10780;50.942;4.028;2023-01-25T06:43:31;4.10;99.90
21244;DHT22;10780;50.942;4.028;2023-01-25T06:45:58;4.10;99.90
21244;DHT22;10780;50.942;4.028;2023-01-25T06:48:24;4.20;99.90
21244;DHT22;10780;50.942;4.028;2023-01-25T06:50:57;4.30;99.90
21244;DHT22;10780;50.942;4.028;2023-01-25T06:53:25;4.30;99.90
21244;DHT22;10780;50.942;4.028;2023-01-25T06:56:17;4.30;99.90
21244;DHT22;10780;50.942;4.028;2023-01-25T06:58:44;4.00;99.90
21244;DHT22;10780;50.942;4.028;2023-01-25T07:03:35;4.10;99.90
21244;DHT22;10780;50.942;4.028;2023-01-25T07:06:02;4.10;99.90
21244;DHT22;10780;50.942;4.028;2023-01-25T07:08:30;4.20;99.90
21244;DHT22;10780;50.942;4.028;2023-01-25T07:10:59;4.20;99.90
21244;DHT22;10780;50.942;4.028;2023-01-25T07:13:26;4.20;99.90
21244;DHT22;10780;50.942;4.028;2023-01-25T07:15:57;4.30;99.90
21244;DHT22;10780;50.942;4.028;2023-01-25T07:18:24;4.20;99.90
21244;DHT22;10780;50.942;4.028;2023-01-25T07:20:51;4.30;99.90
21244;DHT22;10780;50.942;4.028;2023-01-25T07:23:21;4.20;99.90
21244;DHT22;10780;50.942;4.028;2023-01-25T07:25:49;4.40;99.90
21244;DHT22;10780;50.942;4.028;2023-01-25T07:28:19;4.40;99.90
21244;DHT22;10780;50.942;4.028;2023-01-25T07:30:46;4.50;99.90
21244;DHT22;10780;50.942;4.028;2023-01-25T07:33:13;4.50;99.90
21244;DHT22;10780;50.942;4.028;2023-01-25T07:35:41;4.10;99.90
21244;DHT22;10780;50.942;4.028;2023-01-25T07:38:07;3.70;99.90
21244;DHT22;10780;50.942;4.028;2023-01-25T07:40:33;3.40;99.90
21244;DHT22;10780;50.942;4.028;2023-01-25T07:43:00;3.40;99.90
21244;DHT22;10780;50.942;4.028;2023-01-25T07:45:26;3.30;99.90
21244;DHT22;10780;50.942;4.028;2023-01-25T07:47:56;3.40;99.90
21244;DHT22;10780;50.942;4.028;2023-01-25T07:50:22;3.40;99.90
21244;DHT22;10780;50.942;4.028;2023-01-25T07:52:48;3.40;99.90
21244;DHT22;10780;50.942;4.028;2023-01-25T07:55:14;3.30;99.90
21244;DHT22;10780;50.942;4.028;2023-01-25T07:57:40;3.30;99.90
21244;DHT22;10780;50.942;4.028;2023-01-25T08:00:06;3.20;99.90
21244;DHT22;10780;50.942;4.028;2023-01-25T08:02:33;2.90;99.90
21244;DHT22;10780;50.942;4.028;2023-01-25T08:05:00;2.70;99.90
21244;DHT22;10780;50.942;4.028;2023-01-25T08:07:28;2.80;99.90
21244;DHT22;10780;50.942;4.028;2023-01-25T08:09:56;2.80;99.90
21244;DHT22;10780;50.942;4.028;2023-01-25T08:12:22;2.60;99.90
21244;DHT22;10780;50.942;4.028;2023-01-25T08:14:48;2.40;99.90
21244;DHT22;10780;50.942;4.028;2023-01-25T08:17:15;2.50;99.90
21244;DHT22;10780;50.942;4.028;2023-01-25T08:19:40;2.50;99.90
21244;DHT22;10780;50.942;4.028;2023-01-25T08:22:07;2.60;99.90
21244;DHT22;10780;50.942;4.028;2023-01-25T08:24:33;2.60;99.90
21244;DHT22;10780;50.942;4.028;2023-01-25T08:26:58;2.70;99.90
21244;DHT22;10780;50.942;4.028;2023-01-25T08:29:24;2.80;99.90
21244;DHT22;10780;50.942;4.028;2023-01-25T08:31:52;2.80;99.90
21244;DHT22;10780;50.942;4.028;2023-01-25T08:34:18;3.10;99.90
21244;DHT22;10780;50.942;4.028;2023-01-25T08:36:44;3.00;99.90
21244;DHT22;10780;50.942;4.028;2023-01-25T08:39:11;3.00;99.90
21244;DHT22;10780;50.942;4.028;2023-01-25T08:41:38;2.80;99.90
21244;DHT22;10780;50.942;4.028;2023-01-25T08:44:04;2.70;99.90
21244;DHT22;10780;50.942;4.028;2023-01-25T08:46:31;2.50;99.90
21244;DHT22;10780;50.942;4.028;2023-01-25T08:48:59;2.50;99.90
21244;DHT22;10780;50.942;4.028;2023-01-25T08:51:25;2.50;99.90
21244;DHT22;10780;50.942;4.028;2023-01-25T08:53:52;2.30;99.90
21244;DHT22;10780;50.942;4.028;2023-01-25T08:56:18;2.20;99.90
21244;DHT22;10780;50.942;4.028;2023-01-25T08:58:46;2.40;99.90
21244;DHT22;10780;50.942;4.028;2023-01-25T09:01:16;2.50;99.90
21244;DHT22;10780;50.942;4.028;2023-01-25T09:03:44;2.70;99.90
21244;DHT22;10780;50.942;4.028;2023-01-25T09:06:11;2.80;99.90
21244;DHT22;10780;50.942;4.028;2023-01-25T09:12:04;3.00;99.90
21244;DHT22;10780;50.942;4.028;2023-01-25T09:14:30;2.80;99.90
21244;DHT22;10780;50.942;4.028;2023-01-25T09:17:19;2.80;99.90
21244;DHT22;10780;50.942;4.028;2023-01-25T09:19:46;2.70;99.90
21244;DHT22;10780;50.942;4.028;2023-01-25T09:22:17;2.50;99.90
21244;DHT22;10780;50.942;4.028;2023-01-25T09:24:46;2.50;99.90
21244;DHT22;10780;50.942;4.028;2023-01-25T09:27:16;2.70;99.90
21244;DHT22;10780;50.942;4.028;2023-01-25T09:29:43;2.60;99.90
21244;DHT22;10780;50.942;4.028;2023-01-25T09:32:09;2.50;99.90
21244;DHT22;10780;50.942;4.028;2023-01-25T09:34:35;2.60;99.90
21244;DHT22;10780;50.942;4.028;2023-01-25T09:37:01;2.40;99.90
21244;DHT22;10780;50.942;4.028;2023-01-25T09:39:27;2.50;99.90
21244;DHT22;10780;50.942;4.028;2023-01-25T09:50:15;2.70;99.90
21244;DHT22;10780;50.942;4.028;2023-01-25T09:55:31;2.30;99.90
21244;DHT22;10780;50.942;4.028;2023-01-25T09:58:00;2.30;99.90
21244;DHT22;10780;50.942;4.028;2023-01-25T10:00:37;2.50;99.90
21244;DHT22;10780;50.942;4.028;2023-01-25T10:03:11;2.70;99.90
21244;DHT22;10780;50.942;4.028;2023-01-25T10:05:48;2.60;99.90
21244;DHT22;10780;50.942;4.028;2023-01-25T10:11:29;2.90;99.90
21244;DHT22;10780;50.942;4.028;2023-01-25T10:13:57;2.70;99.90
21244;DHT22;10780;50.942;4.028;2023-01-25T10:16:31;2.80;99.90
21244;DHT22;10780;50.942;4.028;2023-01-25T10:19:46;3.00;99.90
21244;DHT22;10780;50.942;4.028;2023-01-25T10:22:26;3.20;99.90
21244;DHT22;10780;50.942;4.028;2023-01-25T10:33:28;3.30;99.90
21244;DHT22;10780;50.942;4.028;2023-01-25T10:35:56;3.50;99.90
21244;DHT22;10780;50.942;4.028;2023-01-25T10:38:44;3.70;99.90
21244;DHT22;10780;50.942;4.028;2023-01-25T10:44:00;3.80;99.90
21244;DHT22;10780;50.942;4.028;2023-01-25T10:46:53;3.90;99.90
21244;DHT22;10780;50.942;4.028;2023-01-25T10:52:31;4.30;99.90
21244;DHT22;10780;50.942;4.028;2023-01-25T10:57:35;3.20;99.90
21244;DHT22;10780;50.942;4.028;2023-01-25T11:00:05;3.50;99.90
21244;DHT22;10780;50.942;4.028;2023-01-25T11:02:45;3.80;99.90
21244;DHT22;10780;50.942;4.028;2023-01-25T11:05:24;3.80;99.90
21244;DHT22;10780;50.942;4.028;2023-01-25T11:07:50;3.70;99.90
21244;DHT22;10780;50.942;4.028;2023-01-25T11:10:36;3.80;99.90
21244;DHT22;10780;50.942;4.028;2023-01-25T11:18:30;3.50;99.90
21244;DHT22;10780;50.942;4.028;2023-01-25T11:21:20;3.70;99.90
21244;DHT22;10780;50.942;4.028;2023-01-25T11:24:01;3.90;99.90
21244;DHT22;10780;50.942;4.028;2023-01-25T11:26:29;3.90;99.90
21244;DHT22;10780;50.942;4.028;2023-01-25T11:29:21;3.80;99.90
21244;DHT22;10780;50.942;4.028;2023-01-25T11:31:50;3.80;99.90
21244;DHT22;10780;50.942;4.028;2023-01-25T11:34:23;3.50;99.90
21244;DHT22;10780;50.942;4.028;2023-01-25T11:36:59;3.50;99.90
21244;DHT22;10780;50.942;4.028;2023-01-25T11:39:41;3.60;99.90
21244;DHT22;10780;50.942;4.028;2023-01-25T11:53:49;4.40;99.90
21244;DHT22;10780;50.942;4.028;2023-01-25T11:59:21;3.50;99.90
21244;DHT22;10780;50.942;4.028;2023-01-25T12:16:26;4.50;99.90
21244;DHT22;10780;50.942;4.028;2023-01-25T12:22:09;4.10;99.90
21244;DHT22;10780;50.942;4.028;2023-01-25T12:27:42;4.10;99.90
21244;DHT22;10780;50.942;4.028;2023-01-25T12:30:22;4.30;99.90
21244;DHT22;10780;50.942;4.028;2023-01-25T12:32:59;4.50;99.90
21244;DHT22;10780;50.942;4.028;2023-01-25T12:35:31;4.40;99.90
21244;DHT22;10780;50.942;4.028;2023-01-25T12:44:25;4.20;99.90
21244;DHT22;10780;50.942;4.028;2023-01-25T12:47:10;4.30;99.90
21244;DHT22;10780;50.942;4.028;2023-01-25T12:49:58;4.50;99.90
21244;DHT22;10780;50.942;4.028;2023-01-25T12:52:36;4.60;99.90
21244;DHT22;10780;50.942;4.028;2023-01-25T12:55:05;4.60;99.90
21244;DHT22;10780;50.942;4.028;2023-01-25T13:00:21;4.50;99.90
21244;DHT22;10780;50.942;4.028;2023-01-25T13:06:07;4.50;99.90
21244;DHT22;10780;50.942;4.028;2023-01-25T13:11:30;4.50;99.90
21244;DHT22;10780;50.942;4.028;2023-01-25T13:16:49;4.20;99.90
21244;DHT22;10780;50.942;4.028;2023-01-25T13:21:55;4.10;99.90
21244;DHT22;10780;50.942;4.028;2023-01-25T13:24:26;4.40;99.90
21244;DHT22;10780;50.942;4.028;2023-01-25T13:37:26;4.30;99.90
21244;DHT22;10780;50.942;4.028;2023-01-25T13:40:00;4.10;99.90
21244;DHT22;10780;50.942;4.028;2023-01-25T13:44:57;4.10;99.90
21244;DHT22;10780;50.942;4.028;2023-01-25T13:47:43;3.80;99.90
21244;DHT22;10780;50.942;4.028;2023-01-25T13:50:23;3.80;99.90
21244;DHT22;10780;50.942;4.028;2023-01-25T13:53:14;3.80;99.90
21244;DHT22;10780;50.942;4.028;2023-01-25T13:55:44;3.80;99.90
21244;DHT22;10780;50.942;4.028;2023-01-25T13:58:26;3.80;99.90
21244;DHT22;10780;50.942;4.028;2023-01-25T14:03:35;3.40;99.90
21244;DHT22;10780;50.942;4.028;2023-01-25T14:06:02;3.50;99.90
21244;DHT22;10780;50.942;4.028;2023-01-25T14:08:29;3.50;99.90
21244;DHT22;10780;50.942;4.028;2023-01-25T14:10:56;3.60;99.90
21244;DHT22;10780;50.942;4.028;2023-01-25T14:13:22;3.60;99.90
21244;DHT22;10780;50.942;4.028;2023-01-25T14:16:11;3.80;99.90
21244;DHT22;10780;50.942;4.028;2023-01-25T14:18:37;3.90;99.90
21244;DHT22;10780;50.942;4.028;2023-01-25T14:21:17;4.00;99.90
21244;DHT22;10780;50.942;4.028;2023-01-25T14:23:44;3.90;99.90
21244;DHT22;10780;50.942;4.028;2023-01-25T14:26:17;3.90;99.90
21244;DHT22;10780;50.942;4.028;2023-01-25T14:28:45;3.90;99.90
21244;DHT22;10780;50.942;4.028;2023-01-25T14:31:23;3.80;99.90
21244;DHT22;10780;50.942;4.028;2023-01-25T14:33:50;3.70;99.90
21244;DHT22;10780;50.942;4.028;2023-01-25T14:36:22;3.50;99.90
21244;DHT22;10780;50.942;4.028;2023-01-25T14:38:48;3.60;99.90
21244;DHT22;10780;50.942;4.028;2023-01-25T14:43:57;3.60;99.90
21244;DHT22;10780;50.942;4.028;2023-01-25T14:48:49;3.30;99.90
21244;DHT22;10780;50.942;4.028;2023-01-25T14:51:27;3.30;99.90
21244;DHT22;10780;50.942;4.028;2023-01-25T14:54:02;3.30;99.90
21244;DHT22;10780;50.942;4.028;2023-01-25T14:56:51;3.50;99.90
21244;DHT22;10780;50.942;4.028;2023-01-25T14:59:36;3.50;99.90
21244;DHT22;10780;50.942;4.028;2023-01-25T15:02:18;3.50;99.90
21244;DHT22;10780;50.942;4.028;2023-01-25T15:04:53;3.50;99.90
21244;DHT22;10780;50.942;4.028;2023-01-25T15:07:42;3.70;99.90
21244;DHT22;10780;50.942;4.028;2023-01-25T15:10:29;3.30;99.90
21244;DHT22;10780;50.942;4.028;2023-01-25T15:15:54;2.90;99.90
21244;DHT22;10780;50.942;4.028;2023-01-25T15:21:15;2.70;99.90
21244;DHT22;10780;50.942;4.028;2023-01-25T15:23:42;2.60;99.90
21244;DHT22;10780;50.942;4.028;2023-01-25T15:26:28;2.40;99.90
21244;DHT22;10780;50.942;4.028;2023-01-25T15:28:58;2.40;99.90
21244;DHT22;10780;50.942;4.028;2023-01-25T15:31:32;2.40;99.90
21244;DHT22;10780;50.942;4.028;2023-01-25T15:33:59;2.30;99.90
21244;DHT22;10780;50.942;4.028;2023-01-25T15:36:26;2.20;99.90
21244;DHT22;10780;50.942;4.028;2023-01-25T15:38:51;2.20;99.90
21244;DHT22;10780;50.942;4.028;2023-01-25T15:41:17;2.30;99.90
21244;DHT22;10780;50.942;4.028;2023-01-25T15:43:44;2.40;99.90
21244;DHT22;10780;50.942;4.028;2023-01-25T15:46:19;2.30;99.90
21244;DHT22;10780;50.942;4.028;2023-01-25T15:48:47;2.30;99.90
21244;DHT22;10780;50.942;4.028;2023-01-25T15:51:13;2.30;99.90
21244;DHT22;10780;50.942;4.028;2023-01-25T15:53:39;2.10;99.90
21244;DHT22;10780;50.942;4.028;2023-01-25T15:56:20;2.00;99.90
21244;DHT22;10780;50.942;4.028;2023-01-25T15:58:52;1.80;99.90
21244;DHT22;10780;50.942;4.028;2023-01-25T16:01:18;1.80;99.90
21244;DHT22;10780;50.942;4.028;2023-01-25T16:03:44;1.80;99.90
21244;DHT22;10780;50.942;4.028;2023-01-25T16:06:29;1.70;99.90
21244;DHT22;10780;50.942;4.028;2023-01-25T16:08:57;1.60;99.90
21244;DHT22;10780;50.942;4.028;2023-01-25T16:11:23;1.60;99.90
21244;DHT22;10780;50.942;4.028;2023-01-25T16:13:49;1.70;99.90
21244;DHT22;10780;50.942;4.028;2023-01-25T16:16:21;1.80;99.90
21244;DHT22;10780;50.942;4.028;2023-01-25T16:18:48;2.00;99.90
21244;DHT22;10780;50.942;4.028;2023-01-25T16:21:14;2.00;99.90
21244;DHT22;10780;50.942;4.028;2023-01-25T16:23:40;2.00;99.90
21244;DHT22;10780;50.942;4.028;2023-01-25T16:26:24;1.90;99.90
21244;DHT22;10780;50.942;4.028;2023-01-25T16:28:50;1.80;99.90
21244;DHT22;10780;50.942;4.028;2023-01-25T16:31:17;1.80;99.90
21244;DHT22;10780;50.942;4.028;2023-01-25T16:33:43;1.80;99.90
21244;DHT22;10780;50.942;4.028;2023-01-25T16:38:37;1.50;99.90
21244;DHT22;10780;50.942;4.028;2023-01-25T16:41:03;1.60;99.90
21244;DHT22;10780;50.942;4.028;2023-01-25T16:43:29;1.50;99.90
21244;DHT22;10780;50.942;4.028;2023-01-25T16:45:56;1.60;99.90
21244;DHT22;10780;50.942;4.028;2023-01-25T16:48:22;1.70;99.90
21244;DHT22;10780;50.942;4.028;2023-01-25T16:50:49;1.80;99.90
21244;DHT22;10780;50.942;4.028;2023-01-25T16:53:15;1.80;99.90
21244;DHT22;10780;50.942;4.028;2023-01-25T16:55:41;1.90;99.90
21244;DHT22;10780;50.942;4.028;2023-01-25T16:58:07;2.00;99.90
21244;DHT22;10780;50.942;4.028;2023-01-25T17:00:32;1.90;99.90
21244;DHT22;10780;50.942;4.028;2023-01-25T17:02:58;2.00;99.90
21244;DHT22;10780;50.942;4.028;2023-01-25T17:05:24;2.00;99.90
21244;DHT22;10780;50.942;4.028;2023-01-25T17:07:50;2.10;99.90
21244;DHT22;10780;50.942;4.028;2023-01-25T17:10:16;2.10;99.90
21244;DHT22;10780;50.942;4.028;2023-01-25T17:12:42;2.20;99.90
21244;DHT22;10780;50.942;4.028;2023-01-25T17:15:09;2.30;99.90
21244;DHT22;10780;50.942;4.028;2023-01-25T17:17:35;2.40;99.90
21244;DHT22;10780;50.942;4.028;2023-01-25T17:20:01;2.70;99.90
21244;DHT22;10780;50.942;4.028;2023-01-25T17:22:26;2.70;99.90
21244;DHT22;10780;50.942;4.028;2023-01-25T17:24:53;2.80;99.90
21244;DHT22;10780;50.942;4.028;2023-01-25T17:27:20;2.80;99.90
21244;DHT22;10780;50.942;4.028;2023-01-25T17:29:47;2.70;99.90
21244;DHT22;10780;50.942;4.028;2023-01-25T17:32:13;2.80;99.90
21244;DHT22;10780;50.942;4.028;2023-01-25T17:34:38;2.70;99.90
21244;DHT22;10780;50.942;4.028;2023-01-25T17:37:04;2.70;99.90
21244;DHT22;10780;50.942;4.028;2023-01-25T17:39:30;2.60;99.90
21244;DHT22;10780;50.942;4.028;2023-01-25T17:41:57;2.70;99.90
21244;DHT22;10780;50.942;4.028;2023-01-25T17:44:23;2.80;99.90
21244;DHT22;10780;50.942;4.028;2023-01-25T17:46:49;2.70;99.90
21244;DHT22;10780;50.942;4.028;2023-01-25T17:49:15;2.80;99.90
21244;DHT22;10780;50.942;4.028;2023-01-25T17:51:42;2.80;99.90
21244;DHT22;10780;50.942;4.028;2023-01-25T17:54:09;2.80;99.90
21244;DHT22;10780;50.942;4.028;2023-01-25T17:56:35;2.90;99.90
21244;DHT22;10780;50.942;4.028;2023-01-25T17:59:00;2.90;99.90
21244;DHT22;10780;50.942;4.028;2023-01-25T18:01:28;2.90;99.90
21244;DHT22;10780;50.942;4.028;2023-01-25T18:03:54;2.80;99.90
21244;DHT22;10780;50.942;4.028;2023-01-25T18:06:26;2.50;99.90
21244;DHT22;10780;50.942;4.028;2023-01-25T18:08:54;2.50;99.90
21244;DHT22;10780;50.942;4.028;2023-01-25T18:11:22;2.40;99.90
21244;DHT22;10780;50.942;4.028;2023-01-25T18:13:51;2.30;99.90
21244;DHT22;10780;50.942;4.028;2023-01-25T18:16:18;2.30;99.90